Time;durP1;ratioP1;P1;durP2;ratioP2;P2;SDS_P1;SDS_P2;PMS_P1;PMS_P2;Temp;Humidity;BMP_temperature;BMP_pressure;BME280_temperature;BME280_humidity;BME280_pressure;Samples;Min_cycle;Max_cycle;Signal;HPM_P1;HPM_P2
2022/09/14 00:08:30;;;;;;;10.33;8.90;;;18.10;99.90;;;;;;4912845;29;20266;-94
2022/09/14 00:11:51;;;;;;;;;;;;;;;;;;;;;
2022/09/14 00:19:04;;;;;;;;;;;;;;;;;;;;;
2022/09/14 00:35:49;;;;;;;;;;;;;;;;;;;;;
2022/09/14 00:39:16;;;;;;;11.27;6.90;;;17.90;99.90;;;;;;4919231;29;20201;-93
2022/09/14 00:42:10;;;;;;;;;;;;;;;;;;;;;
2022/09/14 00:45:26;;;;;;;8.47;6.30;;;17.90;99.90;;;;;;4976834;28;20737;-94
2022/09/14 00:51:07;;;;;;;10.97;6.17;;;17.90;99.90;;;;;;5149520;22;20283;-93
2022/09/14 00:57:33;;;;;;;12.23;6.10;;;17.80;99.90;;;;;;5134585;27;20218;-93
2022/09/14 01:14:09;;;;;;;9.03;4.87;;;17.70;99.90;;;;;;5070075;28;20168;-93
2022/09/14 01:17:42;;;;;;;7.00;4.57;;;17.60;99.90;;;;;;5054299;28;20247;-93
2022/09/14 01:27:58;;;;;;;7.13;4.13;;;17.50;99.90;;;;;;5069555;28;20591;-93
2022/09/14 01:30:52;;;;;;;6.47;4.43;;;17.70;99.90;;;;;;5029938;28;20220;-93
2022/09/14 01:34:03;;;;;;;7.93;4.23;;;17.70;99.90;;;;;;5030247;28;20175;-93
2022/09/14 01:45:45;;;;;;;7.20;4.23;;;17.60;99.90;;;;;;5735275;22;20205;-94
2022/09/14 01:55:50;;;;;;;8.67;4.20;;;17.80;99.90;;;;;;5153924;27;20196;-96
2022/09/14 02:06:04;;;;;;;;;;;;;;;;;;;;;
2022/09/14 02:15:02;;;;;;;9.47;5.17;;;17.60;99.90;;;;;;5124957;22;20251;-94
2022/09/14 02:18:03;;;;;;;8.40;5.00;;;17.50;99.90;;;;;;5049493;27;20208;-94
2022/09/14 02:21:31;;;;;;;7.50;4.90;;;17.50;99.90;;;;;;5193858;22;20272;-94
2022/09/14 02:56:07;;;;;;;6.80;5.97;;;17.20;99.90;;;;;;5039198;28;20193;-94
2022/09/14 02:58:50;;;;;;;10.47;6.77;;;17.00;99.90;;;;;;5041333;28;20178;-94
2022/09/14 03:02:08;;;;;;;10.23;6.50;;;17.10;99.90;;;;;;5036305;28;20197;-94
2022/09/14 03:05:07;;;;;;;10.83;7.13;;;17.00;99.90;;;;;;5016866;28;20213;-94
2022/09/14 03:08:37;;;;;;;10.60;6.77;;;16.80;99.90;;;;;;4939526;28;20224;-94
2022/09/14 03:11:53;;;;;;;8.67;6.83;;;16.90;99.90;;;;;;4958866;28;20197;-94
2022/09/14 03:18:24;;;;;;;11.23;7.53;;;16.80;99.90;;;;;;4967462;28;20207;-93
2022/09/14 03:39:15;;;;;;;12.60;10.03;;;16.60;99.90;;;;;;4828037;29;20226;-93
2022/09/14 03:42:36;;;;;;;15.30;10.83;;;16.60;99.90;;;;;;4887224;28;20179;-94
2022/09/14 03:45:38;;;;;;;;;;;;;;;;;;;;;
2022/09/14 03:48:53;;;;;;;14.27;11.47;;;16.60;99.90;;;;;;5087034;28;20310;-94
2022/09/14 03:52:07;;;;;;;13.83;11.50;;;16.60;99.90;;;;;;5117819;28;20172;-94
2022/09/14 03:55:18;;;;;;;18.40;11.90;;;16.70;99.90;;;;;;5097726;28;20152;-95
2022/09/14 04:05:07;;;;;;;17.00;14.57;;;16.60;99.90;;;;;;5116759;28;20178;-96
2022/09/14 04:08:01;;;;;;;17.23;13.90;;;16.60;99.90;;;;;;5020082;28;20182;-96
2022/09/14 04:17:58;;;;;;;17.57;12.77;;;16.60;99.90;;;;;;5005179;28;20701;-94
2022/09/14 04:24:48;;;;;;;17.13;13.50;;;16.60;99.90;;;;;;5058079;28;20205;-93
2022/09/14 04:53:00;;;;;;;15.30;12.30;;;16.40;99.90;;;;;;4936640;29;20187;-94
2022/09/14 04:55:40;;;;;;;13.17;11.77;;;16.40;99.90;;;;;;5015951;28;20176;-92
2022/09/14 05:15:44;;;;;;;14.23;12.60;;;16.20;99.90;;;;;;5130869;28;20224;-93
2022/09/14 05:29:38;;;;;;;;;;;;;;;;;;;;;
2022/09/14 05:46:42;;;;;;;;;;;;;;;;;;;;;
2022/09/14 05:50:07;;;;;;;21.57;19.50;;;16.20;99.90;;;;;;5050305;28;20205;-92
2022/09/14 05:53:33;;;;;;;;;;;;;;;;;;;;;
2022/09/14 05:59:21;;;;;;;20.70;18.47;;;16.30;99.90;;;;;;5313768;22;20234;-93
2022/09/14 06:02:28;;;;;;;21.67;19.57;;;16.30;99.90;;;;;;5046108;28;20215;-92
2022/09/14 06:42:22;;;;;;;22.03;19.93;;;16.50;99.90;;;;;;5919855;22;20202;-95
2022/09/14 06:59:14;;;;;;;22.20;20.10;;;16.50;99.90;;;;;;5113647;28;20218;-94
2022/09/14 07:03:19;;;;;;;22.43;20.33;;;16.60;99.90;;;;;;5093952;28;20236;-96
2022/09/14 07:05:47;;;;;;;22.57;20.33;;;16.50;99.90;;;;;;4993983;28;20190;-93
2022/09/14 07:08:42;;;;;;;23.37;21.17;;;16.50;99.90;;;;;;5053338;22;20207;-95
2022/09/14 07:11:42;;;;;;;22.53;20.33;;;16.50;99.90;;;;;;5113315;28;20227;-95
2022/09/14 07:18:21;;;;;;;24.60;22.20;;;16.50;99.90;;;;;;5108069;28;20207;-94
2022/09/14 07:53:42;;;;;;;19.73;17.80;;;16.70;99.90;;;;;;5092144;28;20223;-91
2022/09/14 07:56:18;;;;;;;18.33;16.53;;;16.90;99.90;;;;;;5076955;28;20215;-91
2022/09/14 07:58:44;;;;;;;17.80;16.10;;;17.10;99.90;;;;;;5080037;28;20179;-91
2022/09/14 08:04:12;;;;;;;16.33;14.77;;;17.20;99.90;;;;;;5096871;28;20167;-91
2022/09/14 08:07:57;;;;;;;;;;;;;;;;;;;;;
2022/09/14 08:14:10;;;;;;;;;;;;;;;;;;;;;
2022/09/14 08:16:37;;;;;;;17.20;15.50;;;17.20;99.90;;;;;;5001413;28;20246;-92
2022/09/14 08:19:14;;;;;;;16.83;15.23;;;17.20;99.90;;;;;;5031282;28;20196;-91
2022/09/14 08:25:14;;;;;;;16.30;14.73;;;17.20;99.90;;;;;;5004978;28;20159;-91
2022/09/14 08:27:42;;;;;;;15.37;13.77;;;17.20;99.90;;;;;;5013827;28;20718;-92
2022/09/14 08:30:19;;;;;;;15.40;13.80;;;17.40;99.90;;;;;;5055413;28;20173;-90
2022/09/14 08:32:54;;;;;;;13.73;12.33;;;17.40;99.90;;;;;;5070013;28;20195;-90
2022/09/14 08:36:03;;;;;;;14.73;13.23;;;17.60;99.90;;;;;;5065287;28;20216;-91
2022/09/14 08:39:02;;;;;;;14.43;12.93;;;17.70;99.90;;;;;;5090790;28;20168;-90
2022/09/14 08:42:05;;;;;;;14.33;12.90;;;17.70;99.90;;;;;;5076854;28;20183;-92
2022/09/14 08:44:49;;;;;;;13.90;12.17;;;17.80;99.90;;;;;;5078200;28;20197;-91
2022/09/14 08:47:26;;;;;;;15.30;12.20;;;17.80;99.90;;;;;;5063354;28;20236;-93
2022/09/14 08:50:27;;;;;;;15.73;13.37;;;17.70;99.90;;;;;;5076545;27;20180;-91
2022/09/14 09:00:27;;;;;;;14.90;13.40;;;17.40;99.90;;;;;;5079649;28;20210;-90
2022/09/14 09:34:14;;;;;;;17.73;16.00;;;17.10;99.90;;;;;;5047680;28;20233;-92
2022/09/14 09:55:35;;;;;;;;;;;;;;;;;;;;;
2022/09/14 09:58:50;;;;;;;;;;;;;;;;;;;;;
2022/09/14 10:08:55;;;;;;;;;;;;;;;;;;;;;
2022/09/14 10:12:03;;;;;;;20.53;18.43;;;17.00;99.90;;;;;;4956022;29;20211;-91
2022/09/14 10:16:07;;;;;;;;;;;;;;;;;;;;;
2022/09/14 10:19:09;;;;;;;20.23;18.23;;;17.00;99.90;;;;;;4944894;29;20195;-92
2022/09/14 10:22:15;;;;;;;20.10;18.10;;;17.00;99.90;;;;;;4916224;29;20187;-93
2022/09/14 10:24:56;;;;;;;20.90;18.67;;;16.90;99.90;;;;;;4989813;28;20187;-93
2022/09/14 10:27:35;;;;;;;21.90;19.60;;;16.90;99.90;;;;;;4980756;28;20215;-91
2022/09/14 10:30:49;;;;;;;21.37;19.00;;;16.80;99.90;;;;;;4979051;28;20191;-92
2022/09/14 10:33:48;;;;;;;21.47;19.27;;;16.70;99.90;;;;;;4981649;28;20259;-91
2022/09/14 10:36:28;;;;;;;24.40;21.90;;;16.60;99.90;;;;;;4999271;28;20267;-94
2022/09/14 10:42:32;;;;;;;26.37;23.43;;;16.60;99.90;;;;;;5086887;28;20188;-93
2022/09/14 10:45:13;;;;;;;25.63;23.10;;;16.50;99.90;;;;;;5079909;28;20152;-90
2022/09/14 10:48:42;;;;;;;;;;;;;;;;;;;;;
2022/09/14 10:51:48;;;;;;;24.53;21.97;;;16.50;99.90;;;;;;5097496;28;20180;-91
2022/09/14 10:58:16;;;;;;;23.47;21.03;;;16.40;99.90;;;;;;5096744;28;20269;-91
2022/09/14 11:01:10;;;;;;;23.67;21.17;;;16.40;99.90;;;;;;5076331;28;20343;-93
2022/09/14 11:04:14;;;;;;;24.17;21.47;;;16.30;99.90;;;;;;5095572;28;20180;-92
2022/09/14 11:07:28;;;;;;;25.10;22.33;;;16.40;99.90;;;;;;5097740;28;20233;-92
2022/09/14 11:13:44;;;;;;;27.00;22.50;;;16.30;99.90;;;;;;5097993;28;20163;-92
2022/09/14 11:16:46;;;;;;;27.27;22.77;;;16.30;99.90;;;;;;5080874;28;20197;-92
2022/09/14 11:19:56;;;;;;;25.40;22.80;;;16.40;99.90;;;;;;5077420;28;20284;-91
2022/09/14 11:23:04;;;;;;;23.90;21.30;;;16.50;99.90;;;;;;5094292;28;20248;-93
2022/09/14 11:26:30;;;;;;;21.53;19.33;;;16.40;99.90;;;;;;5077198;28;20188;-92
2022/09/14 11:29:47;;;;;;;23.47;21.00;;;16.30;99.90;;;;;;5062754;28;20173;-91
2022/09/14 11:33:00;;;;;;;24.13;21.63;;;16.30;99.90;;;;;;5072948;28;20180;-91
2022/09/14 11:35:42;;;;;;;23.13;20.70;;;16.40;99.90;;;;;;5064234;28;20220;-91
2022/09/14 11:38:43;;;;;;;21.77;19.17;;;16.50;99.90;;;;;;5065622;28;20165;-92
2022/09/14 11:41:44;;;;;;;22.03;19.73;;;16.50;99.90;;;;;;5037082;28;20392;-90
2022/09/14 11:44:52;;;;;;;20.03;18.07;;;16.50;99.90;;;;;;5066810;28;20181;-93
2022/09/14 11:47:55;;;;;;;;;;;;;;;;;;;;;
2022/09/14 11:53:48;;;;;;;17.77;16.13;;;16.60;99.90;;;;;;5074447;28;20167;-92
2022/09/14 11:56:28;;;;;;;19.70;17.80;;;16.50;99.90;;;;;;5063944;28;20221;-93
2022/09/14 11:59:06;;;;;;;19.00;17.03;;;16.50;99.90;;;;;;5071638;28;20161;-91
2022/09/14 12:01:38;;;;;;;19.00;17.00;;;16.60;99.90;;;;;;5061422;28;20176;-92
2022/09/14 12:04:19;;;;;;;18.93;17.13;;;16.60;99.90;;;;;;5035557;28;20262;-92
2022/09/14 12:06:50;;;;;;;17.10;15.53;;;16.60;99.90;;;;;;5058120;28;20184;-92
2022/09/14 12:09:54;;;;;;;17.50;15.87;;;16.70;99.90;;;;;;5065590;28;20179;-93
2022/09/14 12:13:07;;;;;;;19.13;17.23;;;16.70;99.90;;;;;;5063282;28;20187;-92
2022/09/14 12:15:45;;;;;;;19.10;17.20;;;16.70;99.90;;;;;;5053512;28;20248;-93
2022/09/14 12:21:33;;;;;;;17.73;15.93;;;16.60;99.90;;;;;;5061808;28;20191;-93
2022/09/14 12:24:13;;;;;;;18.60;16.90;;;16.70;99.90;;;;;;5049786;28;20244;-94
2022/09/14 12:27:34;;;;;;;;;;;;;;;;;;;;;
2022/09/14 12:30:43;;;;;;;17.90;16.27;;;16.70;99.90;;;;;;5061134;28;20253;-92
2022/09/14 12:33:31;;;;;;;20.17;18.17;;;16.90;99.90;;;;;;5026333;28;20192;-92
2022/09/14 12:36:22;;;;;;;19.43;17.60;;;16.80;99.90;;;;;;5053560;28;20212;-92
2022/09/14 12:39:26;;;;;;;19.33;17.33;;;16.90;99.90;;;;;;5054875;28;20645;-93
2022/09/14 12:42:02;;;;;;;18.80;17.03;;;16.90;99.90;;;;;;5058735;28;20182;-93
2022/09/14 12:44:45;;;;;;;17.43;15.83;;;16.90;99.90;;;;;;5055178;28;20264;-92
2022/09/14 12:47:29;;;;;;;18.20;16.50;;;16.90;99.90;;;;;;5061226;28;20173;-92
2022/09/14 12:50:21;;;;;;;17.30;15.27;;;16.90;99.90;;;;;;5049250;28;20191;-92
2022/09/14 12:53:17;;;;;;;15.17;13.67;;;16.90;99.90;;;;;;5021694;28;20185;-92
2022/09/14 12:56:04;;;;;;;16.63;14.93;;;16.90;99.90;;;;;;5060336;28;20205;-92
2022/09/14 12:59:20;;;;;;;17.93;15.57;;;16.90;99.90;;;;;;5061594;28;20178;-92
2022/09/14 13:05:59;;;;;;;17.83;16.03;;;17.00;99.90;;;;;;5061620;28;20168;-92
2022/09/14 13:08:28;;;;;;;16.60;14.90;;;16.90;99.90;;;;;;5051755;28;20187;-92
2022/09/14 13:11:03;;;;;;;17.50;15.80;;;16.90;99.90;;;;;;5058351;28;20631;-92
2022/09/14 13:13:35;;;;;;;17.60;15.90;;;16.80;99.90;;;;;;5043550;28;20197;-92
2022/09/14 13:16:08;;;;;;;18.03;16.23;;;16.80;99.90;;;;;;5048691;28;20260;-92
2022/09/14 13:18:40;;;;;;;18.53;16.77;;;16.80;99.90;;;;;;5046596;28;20194;-92
2022/09/14 13:21:45;;;;;;;21.10;18.90;;;16.80;99.90;;;;;;5043985;28;20213;-93
2022/09/14 13:25:00;;;;;;;21.90;18.00;;;16.80;99.90;;;;;;4977080;28;20182;-92
2022/09/14 13:27:43;;;;;;;19.40;17.53;;;16.80;99.90;;;;;;4954016;28;20192;-92
2022/09/14 13:30:27;;;;;;;20.60;18.53;;;16.90;99.90;;;;;;4977659;28;20190;-95
2022/09/14 13:32:58;;;;;;;20.77;18.57;;;16.90;99.90;;;;;;5050497;28;20304;-95
2022/09/14 13:36:05;;;;;;;18.57;16.77;;;16.90;99.90;;;;;;5043551;28;20188;-92
2022/09/14 13:39:40;;;;;;;21.60;19.37;;;17.00;99.90;;;;;;5075420;28;20204;-92
2022/09/14 13:42:28;;;;;;;20.83;18.77;;;17.00;99.90;;;;;;5056496;28;20252;-91
2022/09/14 13:45:03;;;;;;;21.10;19.20;;;17.00;99.90;;;;;;5073858;28;20177;-91
2022/09/14 13:47:47;;;;;;;21.77;19.43;;;17.00;99.90;;;;;;5057205;28;20184;-91
2022/09/14 13:53:47;;;;;;;21.13;19.00;;;16.90;99.90;;;;;;5054409;28;20187;-91
2022/09/14 14:00:21;;;;;;;22.37;20.17;;;16.80;99.90;;;;;;5062708;28;20260;-91
2022/09/14 14:03:02;;;;;;;23.93;21.53;;;16.80;99.90;;;;;;5061914;28;20230;-93
2022/09/14 14:05:32;;;;;;;23.37;20.97;;;16.80;99.90;;;;;;5061308;28;20180;-92
2022/09/14 14:08:46;;;;;;;22.70;20.33;;;16.90;99.90;;;;;;5059881;28;20192;-93
2022/09/14 14:11:44;;;;;;;23.23;19.83;;;16.90;99.90;;;;;;5057566;28;20575;-91
2022/09/14 14:14:26;;;;;;;20.20;18.07;;;16.90;99.90;;;;;;5064775;28;20181;-91
2022/09/14 14:20:46;;;;;;;20.30;17.73;;;16.70;99.90;;;;;;5044387;28;20210;-92
2022/09/14 14:23:23;;;;;;;15.80;14.30;;;16.70;99.90;;;;;;5056951;28;20176;-91
2022/09/14 14:26:13;;;;;;;16.43;14.73;;;16.60;99.90;;;;;;5070928;28;20251;-91
2022/09/14 14:29:10;;;;;;;20.17;16.33;;;16.50;99.90;;;;;;5062792;28;20606;-92
2022/09/14 14:31:51;;;;;;;19.33;17.40;;;16.40;99.90;;;;;;5060725;28;20179;-91
2022/09/14 14:34:24;;;;;;;18.77;16.87;;;16.40;99.90;;;;;;5059469;28;20656;-93
2022/09/14 14:37:01;;;;;;;18.60;16.70;;;16.40;99.90;;;;;;5049933;28;20286;-94
2022/09/14 14:39:59;;;;;;;17.83;16.10;;;16.40;99.90;;;;;;5060160;28;20177;-91
2022/09/14 14:42:32;;;;;;;19.10;17.07;;;16.30;99.90;;;;;;5041959;28;20256;-93
2022/09/14 14:45:26;;;;;;;16.53;14.53;;;16.40;99.90;;;;;;5070424;28;20173;-90
2022/09/14 14:48:41;;;;;;;18.30;15.67;;;16.30;99.90;;;;;;5060096;28;20181;-92
2022/09/14 14:51:37;;;;;;;19.57;16.70;;;16.20;99.90;;;;;;5067309;28;20181;-92
2022/09/14 14:54:42;;;;;;;18.00;16.07;;;16.20;99.90;;;;;;5060241;28;20251;-91
2022/09/14 14:57:50;;;;;;;17.53;15.57;;;16.20;99.90;;;;;;5041025;28;20627;-92
2022/09/14 15:00:35;;;;;;;19.70;17.20;;;16.20;99.90;;;;;;5051625;28;20228;-92
2022/09/14 15:03:18;;;;;;;17.33;15.53;;;16.30;99.90;;;;;;5047711;28;20183;-93
2022/09/14 15:05:47;;;;;;;17.80;16.00;;;16.20;99.90;;;;;;5057155;28;20718;-91
2022/09/14 15:08:31;;;;;;;18.17;14.93;;;16.30;99.90;;;;;;5053618;28;20173;-90
2022/09/14 15:11:18;;;;;;;18.37;15.23;;;16.00;99.90;;;;;;5037955;28;20184;-91
2022/09/14 15:17:38;;;;;;;16.30;14.60;;;16.10;99.90;;;;;;5057716;28;20211;-92
2022/09/14 15:20:33;;;;;;;15.93;14.33;;;16.10;99.90;;;;;;5043985;28;20212;-91
2022/09/14 15:23:25;;;;;;;16.13;14.43;;;16.00;99.90;;;;;;5035114;28;20186;-91
2022/09/14 15:26:02;;;;;;;15.13;13.33;;;16.10;99.90;;;;;;5056404;28;20187;-92
2022/09/14 15:28:47;;;;;;;15.97;14.33;;;16.10;99.90;;;;;;5059196;28;20168;-93
2022/09/14 15:31:24;;;;;;;17.50;13.33;;;16.20;99.90;;;;;;5052965;28;20207;-90
2022/09/14 15:34:26;;;;;;;17.00;13.53;;;16.20;99.90;;;;;;5057951;28;20204;-91
2022/09/14 15:37:24;;;;;;;15.40;13.77;;;16.20;99.90;;;;;;5064705;28;20224;-90
2022/09/14 15:39:59;;;;;;;14.93;13.17;;;16.30;99.90;;;;;;5046828;28;20181;-90
2022/09/14 15:46:44;;;;;;;;;;;;;;;;;;;;;
2022/09/14 15:52:44;;;;;;;13.17;11.73;;;16.20;99.90;;;;;;5074780;28;20179;-93
2022/09/14 15:58:52;;;;;;;14.40;13.07;;;16.00;99.90;;;;;;5063923;28;20185;-92
2022/09/14 16:01:44;;;;;;;13.43;12.23;;;16.10;99.90;;;;;;5057159;28;20232;-92
2022/09/14 16:14:31;;;;;;;18.67;14.67;;;16.00;99.90;;;;;;5060027;28;20172;-92
2022/09/14 16:17:16;;;;;;;18.37;15.10;;;16.00;99.90;;;;;;5052908;28;20210;-91
2022/09/14 16:20:34;;;;;;;;;;;;;;;;;;;;;
2022/09/14 16:23:03;;;;;;;16.67;13.93;;;16.20;99.90;;;;;;5045260;28;20209;-91
2022/09/14 16:25:39;;;;;;;15.63;13.70;;;16.10;99.90;;;;;;5063961;28;20188;-90
2022/09/14 16:28:10;;;;;;;16.77;13.57;;;16.10;99.90;;;;;;5062747;28;20181;-93
2022/09/14 16:30:46;;;;;;;15.33;13.73;;;16.10;99.90;;;;;;5063004;28;20164;-93
2022/09/14 16:33:46;;;;;;;17.63;15.27;;;16.10;99.90;;;;;;5066762;28;20207;-90
2022/09/14 16:37:01;;;;;;;16.03;14.37;;;16.20;99.90;;;;;;5071080;28;20197;-91
2022/09/14 16:40:44;;;;;;;;;;;;;;;;;;;;;
2022/09/14 16:44:07;;;;;;;18.03;15.17;;;16.10;99.90;;;;;;5031624;28;20216;-95
2022/09/14 16:51:05;;;;;;;;;;;;;;;;;;;;;
2022/09/14 16:54:32;;;;;;;;;;;;;;;;;;;;;
2022/09/14 17:01:18;;;;;;;19.50;17.60;;;16.00;99.90;;;;;;4905046;29;20257;-92
2022/09/14 17:03:47;;;;;;;17.17;15.37;;;16.10;99.90;;;;;;4892310;29;20198;-93
2022/09/14 17:06:38;;;;;;;17.37;15.60;;;16.00;99.90;;;;;;4959229;28;20215;-90
2022/09/14 17:10:05;;;;;;;15.43;13.83;;;16.00;99.90;;;;;;4966958;28;20188;-91
2022/09/14 17:12:45;;;;;;;12.63;11.33;;;15.80;99.90;;;;;;4938410;29;20194;-90
2022/09/14 17:15:20;;;;;;;12.87;11.37;;;15.70;99.90;;;;;;4992039;28;20184;-91
2022/09/14 17:17:46;;;;;;;11.03;9.93;;;15.80;99.90;;;;;;5047585;28;20278;-91
2022/09/14 17:20:26;;;;;;;12.83;10.97;;;15.80;99.90;;;;;;5074054;28;20204;-92
2022/09/14 17:26:23;;;;;;;11.17;9.40;;;15.90;99.90;;;;;;5066636;28;20172;-90
2022/09/14 17:29:04;;;;;;;10.87;8.80;;;15.80;99.90;;;;;;5072119;28;20183;-91
2022/09/14 17:32:33;;;;;;;10.00;8.90;;;15.70;99.90;;;;;;5078617;28;20176;-91
2022/09/14 17:35:19;;;;;;;12.63;10.93;;;15.60;99.90;;;;;;5072226;28;20196;-92
2022/09/14 17:38:28;;;;;;;12.33;11.03;;;15.70;99.90;;;;;;5053994;28;20212;-90
2022/09/14 17:41:20;;;;;;;13.00;10.93;;;15.70;99.90;;;;;;5067043;28;20197;-91
2022/09/14 17:44:19;;;;;;;13.03;11.63;;;15.70;99.90;;;;;;5074463;28;20220;-91
2022/09/14 17:46:55;;;;;;;11.83;10.63;;;15.70;99.90;;;;;;5068681;28;20197;-91
2022/09/14 17:49:24;;;;;;;11.97;10.77;;;15.70;99.90;;;;;;5068046;28;20183;-92
2022/09/14 17:55:27;;;;;;;11.80;10.50;;;15.70;99.90;;;;;;5079061;28;20188;-92
2022/09/14 17:58:16;;;;;;;13.30;11.57;;;15.60;99.90;;;;;;5072196;28;20211;-92
2022/09/14 18:01:15;;;;;;;14.07;12.57;;;15.60;99.90;;;;;;5074132;28;20184;-90
2022/09/14 18:03:53;;;;;;;15.10;13.50;;;15.70;99.90;;;;;;5078504;28;20167;-91
2022/09/14 18:06:24;;;;;;;15.27;13.67;;;15.60;99.90;;;;;;5069412;28;20196;-91
2022/09/14 18:08:59;;;;;;;16.60;14.50;;;15.60;99.90;;;;;;5076206;28;20206;-92
2022/09/14 18:19:57;;;;;;;;;;;;;;;;;;;;;
2022/09/14 18:23:07;;;;;;;;;;;;;;;;;;;;;
2022/09/14 18:25:51;;;;;;;17.83;15.93;;;15.30;99.90;;;;;;5111839;28;20578;-94
2022/09/14 18:28:43;;;;;;;18.47;16.23;;;15.50;99.90;;;;;;5091033;28;20227;-93
2022/09/14 18:31:28;;;;;;;19.80;17.80;;;15.50;99.90;;;;;;5110682;28;20186;-92
2022/09/14 18:33:59;;;;;;;18.00;14.83;;;15.50;99.90;;;;;;5094814;28;20186;-92
2022/09/14 18:37:07;;;;;;;19.23;15.40;;;15.60;99.90;;;;;;5090996;28;20231;-93
2022/09/14 18:39:50;;;;;;;18.00;16.20;;;15.50;99.90;;;;;;5105648;28;20176;-93
2022/09/14 18:42:30;;;;;;;17.93;14.80;;;15.60;99.90;;;;;;5085643;28;20530;-91
2022/09/14 18:45:08;;;;;;;19.03;16.17;;;15.60;99.90;;;;;;5082261;28;20178;-90
2022/09/14 18:47:38;;;;;;;16.67;14.67;;;15.40;99.90;;;;;;5080014;28;20818;-91
2022/09/14 18:50:10;;;;;;;19.07;17.07;;;15.50;99.90;;;;;;5085666;28;20261;-93
2022/09/14 18:52:52;;;;;;;17.67;15.77;;;15.60;99.90;;;;;;5080802;28;20597;-93
2022/09/14 18:55:24;;;;;;;16.70;14.93;;;15.50;99.90;;;;;;5081764;28;20252;-93
2022/09/14 18:57:55;;;;;;;19.47;16.23;;;15.50;99.90;;;;;;5079549;28;20191;-90
2022/09/14 19:01:03;;;;;;;19.50;16.33;;;15.50;99.90;;;;;;5079185;28;20187;-91
2022/09/14 19:04:14;;;;;;;18.27;16.27;;;15.50;99.90;;;;;;5085533;28;20164;-92
2022/09/14 19:06:56;;;;;;;18.03;16.23;;;15.50;99.90;;;;;;5082787;28;20167;-90
2022/09/14 19:09:39;;;;;;;18.13;16.13;;;15.60;99.90;;;;;;5081873;28;20283;-92
2022/09/14 19:12:30;;;;;;;18.40;16.50;;;15.50;99.90;;;;;;5084093;28;20181;-92
2022/09/14 19:15:00;;;;;;;20.13;17.27;;;15.60;99.90;;;;;;5086047;28;20240;-93
2022/09/14 19:17:35;;;;;;;20.50;17.70;;;15.50;99.90;;;;;;5084760;28;20679;-91
2022/09/14 19:20:24;;;;;;;20.47;17.73;;;15.60;99.90;;;;;;5088842;28;20172;-92
2022/09/14 19:22:55;;;;;;;19.43;17.27;;;15.60;99.90;;;;;;5085271;28;20171;-91
2022/09/14 19:29:20;;;;;;;19.27;16.83;;;15.60;99.90;;;;;;5011844;28;20181;-93
2022/09/14 19:32:05;;;;;;;18.77;16.77;;;15.50;99.90;;;;;;5062547;28;20250;-92
2022/09/14 19:34:37;;;;;;;17.67;15.80;;;15.50;99.90;;;;;;5068834;28;20655;-93
2022/09/14 19:37:38;;;;;;;;;;;;;;;;;;;;;
2022/09/14 19:40:14;;;;;;;19.27;16.73;;;15.50;99.90;;;;;;5103792;28;20215;-95
2022/09/14 19:42:46;;;;;;;18.03;15.27;;;15.50;99.90;;;;;;5086726;28;20283;-94
2022/09/14 19:45:15;;;;;;;17.17;15.40;;;15.30;99.90;;;;;;5086461;28;20176;-93
2022/09/14 19:48:04;;;;;;;17.13;15.17;;;15.40;99.90;;;;;;5087120;28;20187;-93
2022/09/14 19:50:40;;;;;;;17.97;15.77;;;15.50;99.90;;;;;;5104581;28;20274;-93
2022/09/14 19:53:07;;;;;;;19.37;15.83;;;15.40;99.90;;;;;;5085155;28;20163;-92
2022/09/14 19:55:58;;;;;;;;;;;;;;;;;;;;;
2022/09/14 19:58:28;;;;;;;18.37;14.97;;;15.40;99.90;;;;;;5107979;28;20243;-93
2022/09/14 20:00:58;;;;;;;17.40;14.87;;;15.40;99.90;;;;;;5093118;28;20176;-91
2022/09/14 20:03:28;;;;;;;18.83;15.40;;;15.40;99.90;;;;;;5107322;28;20183;-93
2022/09/14 20:06:09;;;;;;;19.83;15.17;;;15.40;99.90;;;;;;5122450;28;20171;-93
2022/09/14 20:11:40;;;;;;;17.20;15.07;;;15.70;99.90;;;;;;5134006;26;20205;-93
2022/09/14 20:14:14;;;;;;;18.13;15.47;;;15.70;99.90;;;;;;5110104;27;20174;-93
2022/09/14 20:17:07;;;;;;;17.93;16.03;;;15.60;99.90;;;;;;5109711;28;20190;-92
2022/09/14 20:19:38;;;;;;;16.90;15.17;;;15.70;99.90;;;;;;5103424;28;20180;-91
2022/09/14 20:22:15;;;;;;;20.40;15.40;;;15.70;99.90;;;;;;5108254;28;20164;-92
2022/09/14 20:24:51;;;;;;;15.97;13.87;;;15.70;99.90;;;;;;5116311;28;20178;-91
2022/09/14 20:27:48;;;;;;;17.57;14.43;;;15.70;99.90;;;;;;5141060;27;20171;-93
2022/09/14 20:31:23;;;;;;;19.30;15.23;;;15.70;99.90;;;;;;5120252;28;20167;-93
2022/09/14 20:33:55;;;;;;;18.10;14.83;;;15.80;99.90;;;;;;5110610;28;20174;-91
2022/09/14 20:36:32;;;;;;;19.13;14.97;;;15.70;99.90;;;;;;5114258;28;20215;-93
2022/09/14 20:39:02;;;;;;;19.13;15.30;;;15.60;99.90;;;;;;5111831;28;20177;-93
2022/09/14 20:41:35;;;;;;;23.33;18.33;;;15.50;99.90;;;;;;5111649;28;20155;-91
2022/09/14 20:44:10;;;;;;;22.33;18.97;;;15.50;99.90;;;;;;5115969;28;20175;-90
2022/09/14 20:46:42;;;;;;;24.17;19.30;;;15.50;99.90;;;;;;5118074;27;20190;-91
2022/09/14 20:49:20;;;;;;;24.03;19.30;;;15.40;99.90;;;;;;5144040;27;20162;-91
2022/09/14 20:51:48;;;;;;;22.80;19.13;;;15.40;99.90;;;;;;5122041;28;20171;-92
2022/09/14 20:54:17;;;;;;;26.53;21.10;;;15.40;99.90;;;;;;5106822;27;20172;-93
2022/09/14 20:56:46;;;;;;;25.30;20.93;;;15.40;99.90;;;;;;5143146;27;20258;-92
2022/09/14 20:59:15;;;;;;;28.00;21.37;;;15.40;99.90;;;;;;5117626;28;20160;-92
2022/09/14 21:01:49;;;;;;;27.03;22.83;;;15.30;99.90;;;;;;5101128;28;20172;-91
2022/09/14 21:04:23;;;;;;;29.47;22.80;;;15.30;99.90;;;;;;5097878;28;20172;-92
2022/09/14 21:06:56;;;;;;;25.67;22.33;;;15.30;99.90;;;;;;5092104;28;20174;-91
2022/09/14 21:09:23;;;;;;;31.77;24.80;;;15.40;99.90;;;;;;5087775;28;20179;-91
2022/09/14 21:12:02;;;;;;;29.07;24.33;;;15.40;99.90;;;;;;5082055;28;20205;-91
2022/09/14 21:14:33;;;;;;;30.90;25.47;;;15.40;99.90;;;;;;5087512;28;20189;-93
2022/09/14 21:17:04;;;;;;;31.47;26.13;;;15.30;99.90;;;;;;5087277;28;20219;-92
2022/09/14 21:19:37;;;;;;;33.90;26.07;;;15.30;99.90;;;;;;5103130;28;20164;-91
2022/09/14 21:22:09;;;;;;;34.20;26.73;;;15.30;99.90;;;;;;5103161;28;20183;-91
2022/09/14 21:28:02;;;;;;;30.90;24.90;;;15.40;99.90;;;;;;5110798;28;20182;-91
2022/09/14 21:30:41;;;;;;;33.37;25.23;;;15.50;99.90;;;;;;5090230;28;20183;-93
2022/09/14 21:33:42;;;;;;;30.80;23.37;;;15.50;99.90;;;;;;5085573;28;20182;-92
2022/09/14 21:36:22;;;;;;;27.40;23.20;;;15.50;99.90;;;;;;5067580;28;20693;-91
2022/09/14 21:39:21;;;;;;;28.03;23.60;;;15.50;99.90;;;;;;5084507;28;20172;-90
2022/09/14 21:42:04;;;;;;;25.57;22.13;;;15.60;99.90;;;;;;5086314;28;20193;-91
2022/09/14 21:44:54;;;;;;;27.50;21.87;;;15.50;99.90;;;;;;5085567;28;20167;-91
2022/09/14 21:47:26;;;;;;;26.83;22.40;;;15.50;99.90;;;;;;5085071;28;20178;-90
2022/09/14 21:50:22;;;;;;;25.07;21.47;;;15.60;99.90;;;;;;5086788;28;20168;-91
2022/09/14 21:52:50;;;;;;;26.73;21.53;;;15.60;99.90;;;;;;5084615;28;20164;-91
2022/09/14 21:55:22;;;;;;;27.37;21.97;;;15.50;99.90;;;;;;5084080;28;20234;-90
2022/09/14 21:58:00;;;;;;;26.93;22.63;;;15.40;99.90;;;;;;5081413;28;20207;-91
2022/09/14 22:00:36;;;;;;;25.03;21.33;;;15.40;99.90;;;;;;5081717;28;20168;-90
2022/09/14 22:03:05;;;;;;;27.60;21.73;;;15.40;99.90;;;;;;5083125;28;20163;-91
2022/09/14 22:05:39;;;;;;;23.63;21.07;;;15.40;99.90;;;;;;5082697;28;20224;-91
2022/09/14 22:08:20;;;;;;;26.53;22.60;;;15.60;99.90;;;;;;5098817;28;20175;-91
2022/09/14 22:10:49;;;;;;;25.83;22.73;;;15.60;99.90;;;;;;5082987;28;20191;-91
2022/09/14 22:13:40;;;;;;;;;;;;;;;;;;;;;
2022/09/14 22:16:39;;;;;;;25.63;22.07;;;15.70;99.90;;;;;;5100832;28;20655;-91
2022/09/14 22:19:26;;;;;;;26.80;22.43;;;15.70;99.90;;;;;;5068404;28;20205;-91
2022/09/14 22:21:55;;;;;;;26.50;21.33;;;15.80;99.90;;;;;;5080038;28;20164;-92
2022/09/14 22:24:35;;;;;;;27.80;23.00;;;15.90;99.90;;;;;;5080414;28;20171;-91
2022/09/14 22:27:07;;;;;;;25.03;22.07;;;15.90;99.90;;;;;;5079196;28;20177;-91
2022/09/14 22:29:35;;;;;;;26.70;22.83;;;16.10;99.90;;;;;;5079645;28;20187;-91
2022/09/14 22:32:02;;;;;;;26.53;22.53;;;15.90;99.90;;;;;;5081288;28;20194;-91
2022/09/14 22:34:55;;;;;;;;;;;;;;;;;;;;;
2022/09/14 22:37:21;;;;;;;26.63;22.40;;;16.10;99.90;;;;;;5095396;28;20222;-92
2022/09/14 22:39:50;;;;;;;25.80;23.10;;;16.10;99.90;;;;;;5082737;28;20172;-91
2022/09/14 22:42:23;;;;;;;28.07;22.37;;;16.00;99.90;;;;;;5080055;28;20179;-91
2022/09/14 22:45:17;;;;;;;29.37;23.50;;;16.30;99.90;;;;;;5083091;28;20525;-92
2022/09/14 22:47:47;;;;;;;29.97;24.33;;;16.30;99.90;;;;;;5083321;28;20174;-91
2022/09/14 22:50:19;;;;;;;28.90;24.73;;;16.40;99.90;;;;;;5084671;28;20205;-90
2022/09/14 22:52:47;;;;;;;31.73;24.90;;;16.50;99.90;;;;;;5083265;28;20242;-91